AAL1753 KATL-KCLT
Flight info
| Callsign | AAL1753 |
|---|---|
| Flight time | N/A |
| Altitude | 31000 |
| Route | PHIIL3 PHIIL CNTLR JONZE5 |
| Aircraft | A319/M-SDE3FGHIRWY/LB1 |
Departure
| Time | 2026-05-07 14:14 |
|---|---|
| Airport | Hartsfield Jackson Atlanta International Airport (KATL) |
Arrival
| Time | N/A |
|---|---|
| Airport | Charlotte Douglas International Airport (KCLT) |
| Time | Latitude | Longitude | Altitude | Speed | Heading |
|---|---|---|---|---|---|
| 2026-05-07 14:06 | 33.64230 | -84.44134 | 1007 ft | 4 kts | 240° |
| 2026-05-07 14:06 | 33.64246 | -84.44116 | 1007 ft | 3 kts | 183° |
| 2026-05-07 14:06 | 33.64250 | -84.44115 | 1007 ft | 0 kts | 180° |
| 2026-05-07 14:08 | 33.64249 | -84.44115 | 1006 ft | 1 kts | 180° |
| 2026-05-07 14:08 | 33.64157 | -84.44114 | 1006 ft | 28 kts | 180° |
| 2026-05-07 14:09 | 33.63962 | -84.44114 | 1006 ft | 28 kts | 180° |
| 2026-05-07 14:09 | 33.63773 | -84.44114 | 1006 ft | 27 kts | 180° |
| 2026-05-07 14:09 | 33.63664 | -84.44005 | 1007 ft | 24 kts | 89° |
| 2026-05-07 14:09 | 33.63664 | -84.43794 | 1006 ft | 27 kts | 89° |
| 2026-05-07 14:10 | 33.63663 | -84.43568 | 1006 ft | 27 kts | 90° |
| 2026-05-07 14:10 | 33.63663 | -84.43349 | 1006 ft | 26 kts | 89° |
| 2026-05-07 14:10 | 33.63664 | -84.43132 | 1006 ft | 26 kts | 90° |
| 2026-05-07 14:10 | 33.63665 | -84.42912 | 1006 ft | 26 kts | 90° |
| 2026-05-07 14:11 | 33.63658 | -84.42698 | 1007 ft | 26 kts | 94° |
| 2026-05-07 14:11 | 33.63656 | -84.42469 | 1007 ft | 28 kts | 90° |
| 2026-05-07 14:11 | 33.63657 | -84.42241 | 1007 ft | 27 kts | 90° |
| 2026-05-07 14:11 | 33.63585 | -84.42045 | 1007 ft | 25 kts | 103° |
| 2026-05-07 14:12 | 33.63583 | -84.41836 | 1006 ft | 25 kts | 90° |
| 2026-05-07 14:12 | 33.63582 | -84.41633 | 1006 ft | 24 kts | 90° |
| 2026-05-07 14:12 | 33.63582 | -84.41433 | 1005 ft | 24 kts | 90° |
| 2026-05-07 14:12 | 33.63582 | -84.41242 | 1006 ft | 23 kts | 90° |
| 2026-05-07 14:13 | 33.63582 | -84.41054 | 1006 ft | 22 kts | 90° |
| 2026-05-07 14:13 | 33.63546 | -84.40911 | 1007 ft | 17 kts | 160° |
| 2026-05-07 14:13 | 33.63469 | -84.40980 | 1007 ft | 16 kts | 271° |
| 2026-05-07 14:13 | 33.63472 | -84.41120 | 1005 ft | 19 kts | 269° |
| 2026-05-07 14:14 | 33.63472 | -84.41541 | 1006 ft | 89 kts | 270° |
| 2026-05-07 14:14 | 33.63477 | -84.42569 | 1010 ft | 153 kts | 271° |
| 2026-05-07 14:14 | 33.63473 | -84.43828 | 1717 ft | 151 kts | 275° |
| 2026-05-07 14:14 | 33.63458 | -84.45092 | 2468 ft | 152 kts | 273° |
| 2026-05-07 14:15 | 33.63440 | -84.46390 | 3044 ft | 164 kts | 270° |
| 2026-05-07 14:15 | 33.63263 | -84.47829 | 3455 ft | 188 kts | 250° |
| 2026-05-07 14:15 | 33.62654 | -84.49321 | 3848 ft | 209 kts | 244° |
| 2026-05-07 14:15 | 33.61957 | -84.50977 | 4352 ft | 233 kts | 245° |
| 2026-05-07 14:16 | 33.61206 | -84.52765 | 5240 ft | 243 kts | 245° |
| 2026-05-07 14:16 | 33.60444 | -84.54582 | 6312 ft | 245 kts | 245° |
| 2026-05-07 14:16 | 33.59582 | -84.56376 | 7292 ft | 253 kts | 235° |
| 2026-05-07 14:16 | 33.58243 | -84.57753 | 8324 ft | 264 kts | 216° |
| 2026-05-07 14:17 | 33.56459 | -84.58459 | 9346 ft | 281 kts | 194° |
| 2026-05-07 14:17 | 33.54462 | -84.58519 | 10290 ft | 289 kts | 188° |
| 2026-05-07 14:17 | 33.52432 | -84.58513 | 11202 ft | 293 kts | 188° |
| 2026-05-07 14:17 | 33.50378 | -84.58489 | 12153 ft | 298 kts | 187° |
| 2026-05-07 14:18 | 33.48292 | -84.57911 | 13018 ft | 326 kts | 162° |
| 2026-05-07 14:18 | 33.46465 | -84.56097 | 13813 ft | 357 kts | 134° |
| 2026-05-07 14:18 | 33.45306 | -84.53296 | 14086 ft | 394 kts | 108° |
| 2026-05-07 14:18 | 33.44868 | -84.49972 | 14462 ft | 414 kts | 94° |
| 2026-05-07 14:19 | 33.44901 | -84.46482 | 15067 ft | 423 kts | 86° |
| 2026-05-07 14:19 | 33.45150 | -84.42937 | 15730 ft | 429 kts | 84° |
| 2026-05-07 14:19 | 33.45426 | -84.39345 | 16383 ft | 436 kts | 85° |
| 2026-05-07 14:19 | 33.45664 | -84.35738 | 17065 ft | 442 kts | 83° |
| 2026-05-07 14:20 | 33.46163 | -84.32027 | 17719 ft | 448 kts | 76° |
| 2026-05-07 14:20 | 33.46960 | -84.28448 | 18333 ft | 453 kts | 71° |
| 2026-05-07 14:20 | 33.47843 | -84.24795 | 18928 ft | 458 kts | 71° |
| 2026-05-07 14:20 | 33.48748 | -84.21114 | 19554 ft | 463 kts | 71° |
| 2026-05-07 14:21 | 33.49681 | -84.17400 | 20158 ft | 467 kts | 70° |
| 2026-05-07 14:21 | 33.50635 | -84.13653 | 20784 ft | 472 kts | 70° |
| 2026-05-07 14:21 | 33.51598 | -84.09875 | 21395 ft | 477 kts | 71° |
| 2026-05-07 14:21 | 33.52572 | -84.06052 | 21947 ft | 481 kts | 71° |
| 2026-05-07 14:22 | 33.53537 | -84.02243 | 22541 ft | 486 kts | 71° |
| 2026-05-07 14:22 | 33.54519 | -83.98345 | 23169 ft | 490 kts | 71° |
| 2026-05-07 14:22 | 33.55508 | -83.94405 | 23711 ft | 494 kts | 72° |
| 2026-05-07 14:22 | 33.56501 | -83.90425 | 24179 ft | 498 kts | 72° |
| 2026-05-07 14:23 | 33.57494 | -83.86429 | 24665 ft | 501 kts | 72° |
| 2026-05-07 14:23 | 33.58567 | -83.82447 | 25135 ft | 503 kts | 66° |
| 2026-05-07 14:23 | 33.59966 | -83.78640 | 25598 ft | 505 kts | 63° |
| 2026-05-07 14:23 | 33.61428 | -83.74802 | 26069 ft | 508 kts | 63° |
| 2026-05-07 14:24 | 33.62900 | -83.70933 | 26515 ft | 511 kts | 63° |
| 2026-05-07 14:24 | 33.64377 | -83.67045 | 26965 ft | 514 kts | 63° |
| 2026-05-07 14:24 | 33.65732 | -83.63051 | 27410 ft | 519 kts | 70° |
| 2026-05-07 14:24 | 33.66785 | -83.58890 | 27849 ft | 522 kts | 69° |
| 2026-05-07 14:25 | 33.68277 | -83.54915 | 28285 ft | 522 kts | 57° |
| 2026-05-07 14:25 | 33.70159 | -83.51185 | 28752 ft | 522 kts | 55° |
| 2026-05-07 14:25 | 33.72052 | -83.47449 | 29258 ft | 524 kts | 55° |
| 2026-05-07 14:25 | 33.73931 | -83.43681 | 29725 ft | 526 kts | 56° |
| 2026-05-07 14:26 | 33.75796 | -83.39874 | 30166 ft | 530 kts | 56° |
| 2026-05-07 14:26 | 33.77651 | -83.36032 | 30558 ft | 533 kts | 57° |
| 2026-05-07 14:26 | 33.79516 | -83.32139 | 30833 ft | 538 kts | 57° |
| 2026-05-07 14:26 | 33.81386 | -83.28222 | 30947 ft | 538 kts | 57° |
| 2026-05-07 14:27 | 33.83229 | -83.24367 | 30967 ft | 526 kts | 57° |
| 2026-05-07 14:27 | 33.87028 | -83.16987 | 30961 ft | 518 kts | 53° |
| 2026-05-07 14:28 | 33.91060 | -83.09811 | 30949 ft | 515 kts | 51° |
| 2026-05-07 14:28 | 33.95078 | -83.02643 | 30919 ft | 515 kts | 52° |
| 2026-05-07 14:29 | 33.98988 | -82.95463 | 30933 ft | 516 kts | 53° |
| 2026-05-07 14:29 | 34.02878 | -82.88195 | 30966 ft | 516 kts | 53° |
| 2026-05-07 14:30 | 34.06781 | -82.80923 | 30936 ft | 517 kts | 53° |
| 2026-05-07 14:30 | 34.10708 | -82.73645 | 30925 ft | 517 kts | 53° |
| 2026-05-07 14:30 | 34.12672 | -82.70003 | 30748 ft | 517 kts | 53° |
| 2026-05-07 14:31 | 34.14631 | -82.66368 | 30505 ft | 517 kts | 53° |
| 2026-05-07 14:31 | 34.16588 | -82.62724 | 30270 ft | 516 kts | 53° |
| 2026-05-07 14:31 | 34.18541 | -82.59076 | 30037 ft | 516 kts | 53° |
| 2026-05-07 14:31 | 34.20486 | -82.55439 | 29673 ft | 512 kts | 53° |
| 2026-05-07 14:32 | 34.22415 | -82.51829 | 28893 ft | 512 kts | 53° |
| 2026-05-07 14:32 | 34.24329 | -82.48245 | 28534 ft | 504 kts | 52° |
| 2026-05-07 14:32 | 34.26202 | -82.44735 | 28088 ft | 501 kts | 53° |
| 2026-05-07 14:32 | 34.28086 | -82.41200 | 27633 ft | 496 kts | 52° |
| 2026-05-07 14:33 | 34.29954 | -82.37700 | 27123 ft | 493 kts | 52° |
| 2026-05-07 14:33 | 34.31802 | -82.34231 | 26651 ft | 488 kts | 52° |
| 2026-05-07 14:33 | 34.33632 | -82.30789 | 26171 ft | 484 kts | 52° |
| 2026-05-07 14:33 | 34.35445 | -82.27371 | 25711 ft | 480 kts | 52° |
| 2026-05-07 14:34 | 34.37247 | -82.23973 | 25256 ft | 477 kts | 52° |
| 2026-05-07 14:34 | 34.39018 | -82.20633 | 24821 ft | 473 kts | 52° |
| 2026-05-07 14:34 | 34.40790 | -82.17292 | 24385 ft | 470 kts | 52° |
| 2026-05-07 14:34 | 34.42556 | -82.13958 | 23962 ft | 467 kts | 52° |
| 2026-05-07 14:35 | 34.44307 | -82.10642 | 23554 ft | 464 kts | 52° |
| 2026-05-07 14:35 | 34.46023 | -82.07384 | 23086 ft | 462 kts | 52° |
| 2026-05-07 14:35 | 34.47747 | -82.04107 | 22662 ft | 458 kts | 52° |
| 2026-05-07 14:35 | 34.49453 | -82.00866 | 22336 ft | 451 kts | 53° |
| 2026-05-07 14:36 | 34.51128 | -81.97683 | 21968 ft | 445 kts | 53° |
| 2026-05-07 14:36 | 34.52788 | -81.94528 | 21574 ft | 441 kts | 53° |
| 2026-05-07 14:36 | 34.54414 | -81.91439 | 21166 ft | 437 kts | 53° |
| 2026-05-07 14:36 | 34.56043 | -81.88346 | 20756 ft | 434 kts | 53° |
| 2026-05-07 14:37 | 34.57660 | -81.85277 | 20342 ft | 430 kts | 53° |
| 2026-05-07 14:37 | 34.60325 | -81.80213 | 19657 ft | 423 kts | 54° |
| 2026-05-07 14:37 | 34.61904 | -81.77197 | 19253 ft | 420 kts | 54° |
| 2026-05-07 14:38 | 34.63460 | -81.74211 | 18855 ft | 416 kts | 54° |
| 2026-05-07 14:38 | 34.65005 | -81.71245 | 18469 ft | 413 kts | 54° |
| 2026-05-07 14:38 | 34.66536 | -81.68303 | 18078 ft | 409 kts | 54° |
| 2026-05-07 14:38 | 34.68046 | -81.65403 | 17567 ft | 403 kts | 54° |
| 2026-05-07 14:39 | 34.69544 | -81.62530 | 16802 ft | 401 kts | 54° |
| 2026-05-07 14:39 | 34.71013 | -81.59710 | 16163 ft | 396 kts | 56° |
| 2026-05-07 14:39 | 34.72456 | -81.56938 | 15988 ft | 377 kts | 56° |
| 2026-05-07 14:39 | 34.73831 | -81.54301 | 15703 ft | 363 kts | 56° |
| 2026-05-07 14:40 | 34.75170 | -81.51728 | 15241 ft | 357 kts | 57° |
| 2026-05-07 14:40 | 34.76420 | -81.49135 | 14744 ft | 353 kts | 59° |
| 2026-05-07 14:40 | 34.77572 | -81.46510 | 14251 ft | 350 kts | 62° |
| 2026-05-07 14:40 | 34.78384 | -81.43772 | 13772 ft | 347 kts | 75° |
| 2026-05-07 14:41 | 34.79015 | -81.40956 | 13212 ft | 344 kts | 73° |
| 2026-05-07 14:41 | 34.79679 | -81.38175 | 12656 ft | 340 kts | 72° |
| 2026-05-07 14:41 | 34.80362 | -81.35424 | 12109 ft | 337 kts | 72° |
| 2026-05-07 14:41 | 34.81047 | -81.32710 | 11564 ft | 334 kts | 71° |
| 2026-05-07 14:42 | 34.81729 | -81.30013 | 11021 ft | 331 kts | 71° |
| 2026-05-07 14:42 | 34.82399 | -81.27356 | 10465 ft | 328 kts | 71° |
| 2026-05-07 14:42 | 34.83057 | -81.24730 | 9847 ft | 327 kts | 71° |
| 2026-05-07 14:42 | 34.83714 | -81.22087 | 9112 ft | 327 kts | 71° |